Crown Topaz — 3FAS9 — position and weather

sailwx.info

Track history (hours):
 
Tides and Currents Weather Stations Pressure Air Temp Water Temp Dewpoint Dewpoint Depression Visibility Wind Speed Wind Dir Waves Ship Positions

Crown Topaz

Last reported at 2014-Oct-12 01:18 UTC. Time now 2014-Oct-22 01:45 UTC.
Position N 17°04' W 063°28'.
Warning: this ship's position is 10 days out of date.

Length 152 m; draft 6.4 m.

Type: Cargo ship. MMSI: 357144000.

Date/timePositionNaut miles runAvg speedWind from/ knotsBaromVisibWave heightAir tempDewpointWater temp
2014-Oct-12 01:18N 17°04' W 063°28'4917.8
2014-Oct-11 22:32N 17°49' W 063°06'1212.3
2014-Oct-11 21:32N 18°01' W 063°03'0 0.1
2014-Oct-11 19:32N 18°01' W 063°03'1 0.1
2014-Oct-11 11:27N 18°00' W 063°03'910.4
2014-Oct-11 10:33N 17°51' W 063°05'84 8.4
2014-Oct-11 00:33N 16°36' W 062°25'1919.4
2014-Oct-10 23:33N 16°22' W 062°11'3818.8
2014-Oct-10 21:32N 15°55' W 061°43'2110.6
2014-Oct-10 19:31N 16°14' W 061°32'0 0.0
2014-Oct-10 11:30N 16°14' W 061°33'0 0.0
2014-Oct-10 10:30N 16°14' W 061°33'3 2.2
2014-Oct-10 09:13N 16°11' W 061°31'2 2.5
2014-Oct-10 08:33N 16°10' W 061°31'  
2014-Oct-05 10:30N 36°10' W 030°19'1818.5
2014-Oct-05 09:31N 36°21' W 030°01'1818.4
2014-Oct-05 08:33N 36°31' W 029°43'1818.4
2014-Oct-05 07:34N 36°42' W 029°24'1818.5
2014-Oct-05 06:34N 36°53' W 029°06'1918.6
2014-Oct-05 05:34N 37°04' W 028°47'1918.5
2014-Oct-05 04:34N 37°15' W 028°28'1818.4
2014-Oct-05 03:33N 37°25' W 028°09'1818.4
2014-Oct-05 02:33N 37°36' W 027°51'1818.3
2014-Oct-05 01:33N 37°47' W 027°32'1818.4
2014-Oct-05 00:33N 37°58' W 027°13'1918.5
2014-Oct-04 23:33N 38°09' W 026°54'1918.5
2014-Oct-04 22:33N 38°20' W 026°35'1818.1
2014-Oct-04 21:33N 38°30' W 026°17'1918.6
2014-Oct-04 20:33N 38°42' W 025°58'1818.3
2014-Oct-04 19:33N 38°52' W 025°39'2118.4
2014-Oct-04 18:24N 39°04' W 025°16'1818.4
2014-Oct-04 17:25N 39°15' W 024°57'1918.6
2014-Oct-04 16:25N 39°26' W 024°38'  
Track history (hours):
 
Tides and Currents Weather Stations Pressure Air Temp Water Temp Dewpoint Dewpoint Depression Visibility Wind Speed Wind Dir Waves Ship Positions

Crown Topaz

Last reported at 2014-Oct-12 01:18 UTC. Time now 2014-Oct-22 01:45 UTC.
Position N 17°04' W 063°28'.
Warning: this ship's position is 10 days out of date.

Length 152 m; draft 6.4 m.

Type: Cargo ship. MMSI: 357144000.

Date/timePositionNaut miles runAvg speedWind from/ knotsBaromVisibWave heightAir tempDewpointWater temp
2014-Oct-12 01:18N 17°04' W 063°28'4917.8
2014-Oct-11 22:32N 17°49' W 063°06'1212.3
2014-Oct-11 21:32N 18°01' W 063°03'0 0.1
2014-Oct-11 19:32N 18°01' W 063°03'1 0.1
2014-Oct-11 11:27N 18°00' W 063°03'910.4
2014-Oct-11 10:33N 17°51' W 063°05'84 8.4
2014-Oct-11 00:33N 16°36' W 062°25'1919.4
2014-Oct-10 23:33N 16°22' W 062°11'3818.8
2014-Oct-10 21:32N 15°55' W 061°43'2110.6
2014-Oct-10 19:31N 16°14' W 061°32'0 0.0
2014-Oct-10 11:30N 16°14' W 061°33'0 0.0
2014-Oct-10 10:30N 16°14' W 061°33'3 2.2
2014-Oct-10 09:13N 16°11' W 061°31'2 2.5
2014-Oct-10 08:33N 16°10' W 061°31'  
2014-Oct-05 10:30N 36°10' W 030°19'1818.5
2014-Oct-05 09:31N 36°21' W 030°01'1818.4
2014-Oct-05 08:33N 36°31' W 029°43'1818.4
2014-Oct-05 07:34N 36°42' W 029°24'1818.5
2014-Oct-05 06:34N 36°53' W 029°06'1918.6
2014-Oct-05 05:34N 37°04' W 028°47'1918.5
2014-Oct-05 04:34N 37°15' W 028°28'1818.4
2014-Oct-05 03:33N 37°25' W 028°09'1818.4
2014-Oct-05 02:33N 37°36' W 027°51'1818.3
2014-Oct-05 01:33N 37°47' W 027°32'1818.4
2014-Oct-05 00:33N 37°58' W 027°13'1918.5
2014-Oct-04 23:33N 38°09' W 026°54'1918.5
2014-Oct-04 22:33N 38°20' W 026°35'1818.1
2014-Oct-04 21:33N 38°30' W 026°17'1918.6
2014-Oct-04 20:33N 38°42' W 025°58'1818.3
2014-Oct-04 19:33N 38°52' W 025°39'2118.4
2014-Oct-04 18:24N 39°04' W 025°16'1818.4
2014-Oct-04 17:25N 39°15' W 024°57'1918.6
2014-Oct-04 16:25N 39°26' W 024°38'  

Dump ship's entire track history